Terminal Aerodrome Forecast
Issued by NWS Flagstaff, AZ

Home | Current Version | Previous Version | Text Only | Print | Product List | Glossary On
Versions: 1 2 3 4 5 6 7 8 9 10 11 12 13 14
000
FTUS45 KFGZ 301120
TAFINW
TAF
KINW 301120Z 3012/3112 VRB06KT P6SM SCT090
     FM302000 VRB15G30KT P6SM VCTS BKN080CB
     FM310200 VRB06KT P6SM SCT090=

USA.gov is the U.S. government's official web portal to all federal, state and local government web resources and services.